sensor_id;sensor_type;location;lat;lon;timestamp;P1;durP1;ratioP1;P2;durP2;ratioP2
46266;SDS011;31998;48.798;15.066;2022-12-18T00:01:19;10.53;;;8.10;;
46266;SDS011;31998;48.798;15.066;2022-12-18T00:03:52;12.47;;;7.17;;
46266;SDS011;31998;48.798;15.066;2022-12-18T00:06:19;18.53;;;8.67;;
46266;SDS011;31998;48.798;15.066;2022-12-18T00:08:45;9.83;;;6.30;;
46266;SDS011;31998;48.798;15.066;2022-12-18T00:11:12;9.97;;;6.43;;
46266;SDS011;31998;48.798;15.066;2022-12-18T00:13:39;9.73;;;7.00;;
46266;SDS011;31998;48.798;15.066;2022-12-18T00:16:06;10.87;;;5.70;;
46266;SDS011;31998;48.798;15.066;2022-12-18T00:18:34;9.73;;;5.27;;
46266;SDS011;31998;48.798;15.066;2022-12-18T00:21:00;5.60;;;4.53;;
46266;SDS011;31998;48.798;15.066;2022-12-18T00:23:28;7.73;;;5.77;;
46266;SDS011;31998;48.798;15.066;2022-12-18T00:25:54;7.13;;;5.40;;
46266;SDS011;31998;48.798;15.066;2022-12-18T00:28:20;5.83;;;5.07;;
46266;SDS011;31998;48.798;15.066;2022-12-18T00:30:45;8.40;;;6.20;;
46266;SDS011;31998;48.798;15.066;2022-12-18T00:33:11;6.60;;;5.20;;
46266;SDS011;31998;48.798;15.066;2022-12-18T00:35:36;8.30;;;4.30;;
46266;SDS011;31998;48.798;15.066;2022-12-18T00:38:01;12.47;;;5.90;;
46266;SDS011;31998;48.798;15.066;2022-12-18T00:40:27;5.03;;;4.57;;
46266;SDS011;31998;48.798;15.066;2022-12-18T00:42:52;5.57;;;4.83;;
46266;SDS011;31998;48.798;15.066;2022-12-18T00:45:20;10.43;;;5.85;;
46266;SDS011;31998;48.798;15.066;2022-12-18T00:47:47;6.07;;;4.53;;
46266;SDS011;31998;48.798;15.066;2022-12-18T00:50:12;3.90;;;3.50;;
46266;SDS011;31998;48.798;15.066;2022-12-18T00:52:37;9.40;;;5.20;;
46266;SDS011;31998;48.798;15.066;2022-12-18T00:55:03;11.43;;;5.03;;
46266;SDS011;31998;48.798;15.066;2022-12-18T00:57:28;8.30;;;6.27;;
46266;SDS011;31998;48.798;15.066;2022-12-18T00:59:54;7.57;;;4.60;;
46266;SDS011;31998;48.798;15.066;2022-12-18T01:02:19;9.63;;;5.17;;
46266;SDS011;31998;48.798;15.066;2022-12-18T01:04:45;4.20;;;3.97;;
46266;SDS011;31998;48.798;15.066;2022-12-18T01:07:10;5.33;;;4.63;;
46266;SDS011;31998;48.798;15.066;2022-12-18T01:09:35;6.20;;;4.30;;
46266;SDS011;31998;48.798;15.066;2022-12-18T01:12:01;8.10;;;4.13;;
46266;SDS011;31998;48.798;15.066;2022-12-18T01:14:26;5.00;;;4.07;;
46266;SDS011;31998;48.798;15.066;2022-12-18T01:16:52;4.73;;;4.30;;
46266;SDS011;31998;48.798;15.066;2022-12-18T01:19:17;4.07;;;3.77;;
46266;SDS011;31998;48.798;15.066;2022-12-18T01:21:42;4.93;;;4.00;;
46266;SDS011;31998;48.798;15.066;2022-12-18T01:24:09;4.87;;;4.40;;
46266;SDS011;31998;48.798;15.066;2022-12-18T01:26:36;3.15;;;3.00;;
46266;SDS011;31998;48.798;15.066;2022-12-18T01:29:02;5.03;;;3.53;;
46266;SDS011;31998;48.798;15.066;2022-12-18T01:31:28;3.87;;;2.77;;
46266;SDS011;31998;48.798;15.066;2022-12-18T01:33:56;4.20;;;3.35;;
46266;SDS011;31998;48.798;15.066;2022-12-18T01:36:23;4.03;;;3.03;;
46266;SDS011;31998;48.798;15.066;2022-12-18T01:38:50;5.30;;;3.17;;
46266;SDS011;31998;48.798;15.066;2022-12-18T01:41:16;4.20;;;3.10;;
46266;SDS011;31998;48.798;15.066;2022-12-18T01:43:44;4.20;;;3.85;;
46266;SDS011;31998;48.798;15.066;2022-12-18T01:46:10;3.42;;;3.13;;
46266;SDS011;31998;48.798;15.066;2022-12-18T01:48:35;2.83;;;2.73;;
46266;SDS011;31998;48.798;15.066;2022-12-18T01:51:01;6.72;;;4.38;;
46266;SDS011;31998;48.798;15.066;2022-12-18T01:53:27;3.20;;;3.00;;
46266;SDS011;31998;48.798;15.066;2022-12-18T01:55:53;4.13;;;3.73;;
46266;SDS011;31998;48.798;15.066;2022-12-18T01:58:27;4.25;;;3.53;;
46266;SDS011;31998;48.798;15.066;2022-12-18T02:01:00;6.07;;;3.03;;
46266;SDS011;31998;48.798;15.066;2022-12-18T02:03:26;4.83;;;4.40;;
46266;SDS011;31998;48.798;15.066;2022-12-18T02:06:05;3.90;;;3.43;;
46266;SDS011;31998;48.798;15.066;2022-12-18T02:16:25;2.30;;;2.08;;
46266;SDS011;31998;48.798;15.066;2022-12-18T02:19:00;2.25;;;2.05;;
46266;SDS011;31998;48.798;15.066;2022-12-18T02:27:18;2.85;;;2.65;;
46266;SDS011;31998;48.798;15.066;2022-12-18T02:29:46;3.67;;;2.77;;
46266;SDS011;31998;48.798;15.066;2022-12-18T02:32:16;3.38;;;2.75;;
46266;SDS011;31998;48.798;15.066;2022-12-18T02:34:45;2.05;;;1.95;;
46266;SDS011;31998;48.798;15.066;2022-12-18T02:37:14;3.60;;;3.30;;
46266;SDS011;31998;48.798;15.066;2022-12-18T02:39:43;1.95;;;1.85;;
46266;SDS011;31998;48.798;15.066;2022-12-18T02:42:11;5.32;;;3.08;;
46266;SDS011;31998;48.798;15.066;2022-12-18T02:44:44;2.83;;;2.53;;
46266;SDS011;31998;48.798;15.066;2022-12-18T02:47:12;82.30;;;6.53;;
46266;SDS011;31998;48.798;15.066;2022-12-18T02:49:46;30.42;;;4.63;;
46266;SDS011;31998;48.798;15.066;2022-12-18T03:00:20;19.48;;;5.57;;
46266;SDS011;31998;48.798;15.066;2022-12-18T03:03:33;18.55;;;6.20;;
46266;SDS011;31998;48.798;15.066;2022-12-18T03:05:41;17.05;;;4.38;;
46266;SDS011;31998;48.798;15.066;2022-12-18T03:08:17;18.02;;;7.20;;
46266;SDS011;31998;48.798;15.066;2022-12-18T03:10:50;15.35;;;6.95;;
46266;SDS011;31998;48.798;15.066;2022-12-18T03:13:34;11.43;;;6.30;;
46266;SDS011;31998;48.798;15.066;2022-12-18T03:16:05;17.48;;;7.80;;
46266;SDS011;31998;48.798;15.066;2022-12-18T03:18:53;16.65;;;7.40;;
46266;SDS011;31998;48.798;15.066;2022-12-18T03:21:24;22.73;;;8.32;;
46266;SDS011;31998;48.798;15.066;2022-12-18T03:23:53;10.77;;;5.90;;
46266;SDS011;31998;48.798;15.066;2022-12-18T03:26:21;13.23;;;7.10;;
46266;SDS011;31998;48.798;15.066;2022-12-18T03:28:53;5.85;;;4.70;;
46266;SDS011;31998;48.798;15.066;2022-12-18T03:31:24;6.90;;;4.65;;
46266;SDS011;31998;48.798;15.066;2022-12-18T03:33:54;5.40;;;4.72;;
46266;SDS011;31998;48.798;15.066;2022-12-18T03:36:22;7.43;;;4.00;;
46266;SDS011;31998;48.798;15.066;2022-12-18T03:38:48;6.57;;;4.68;;
46266;SDS011;31998;48.798;15.066;2022-12-18T03:41:19;6.40;;;4.10;;
46266;SDS011;31998;48.798;15.066;2022-12-18T03:46:40;3.60;;;3.40;;
46266;SDS011;31998;48.798;15.066;2022-12-18T03:49:25;4.90;;;3.30;;
46266;SDS011;31998;48.798;15.066;2022-12-18T03:52:01;4.10;;;2.75;;
46266;SDS011;31998;48.798;15.066;2022-12-18T03:54:31;3.60;;;2.33;;
46266;SDS011;31998;48.798;15.066;2022-12-18T03:56:59;6.20;;;2.65;;
46266;SDS011;31998;48.798;15.066;2022-12-18T03:59:30;3.15;;;2.85;;
46266;SDS011;31998;48.798;15.066;2022-12-18T04:01:57;3.42;;;3.05;;
46266;SDS011;31998;48.798;15.066;2022-12-18T04:04:25;3.95;;;2.58;;
46266;SDS011;31998;48.798;15.066;2022-12-18T04:06:53;7.93;;;2.65;;
46266;SDS011;31998;48.798;15.066;2022-12-18T04:09:19;3.17;;;2.40;;
46266;SDS011;31998;48.798;15.066;2022-12-18T04:11:45;2.55;;;2.30;;
46266;SDS011;31998;48.798;15.066;2022-12-18T04:14:12;1.73;;;1.63;;
46266;SDS011;31998;48.798;15.066;2022-12-18T04:16:37;2.00;;;1.90;;
46266;SDS011;31998;48.798;15.066;2022-12-18T04:19:03;1.60;;;1.50;;
46266;SDS011;31998;48.798;15.066;2022-12-18T04:21:29;3.40;;;1.57;;
46266;SDS011;31998;48.798;15.066;2022-12-18T04:23:54;1.97;;;1.87;;
46266;SDS011;31998;48.798;15.066;2022-12-18T04:26:20;2.40;;;1.77;;
46266;SDS011;31998;48.798;15.066;2022-12-18T04:28:45;4.97;;;2.90;;
46266;SDS011;31998;48.798;15.066;2022-12-18T04:31:11;2.20;;;1.00;;
46266;SDS011;31998;48.798;15.066;2022-12-18T04:33:36;2.17;;;2.07;;
46266;SDS011;31998;48.798;15.066;2022-12-18T04:36:02;3.30;;;1.60;;
46266;SDS011;31998;48.798;15.066;2022-12-18T04:38:27;1.83;;;1.70;;
46266;SDS011;31998;48.798;15.066;2022-12-18T04:40:53;2.43;;;2.17;;
46266;SDS011;31998;48.798;15.066;2022-12-18T04:43:18;2.13;;;1.53;;
46266;SDS011;31998;48.798;15.066;2022-12-18T04:45:44;5.33;;;1.97;;
46266;SDS011;31998;48.798;15.066;2022-12-18T04:48:09;7.27;;;2.80;;
46266;SDS011;31998;48.798;15.066;2022-12-18T04:50:34;6.03;;;1.80;;
46266;SDS011;31998;48.798;15.066;2022-12-18T04:53:00;4.87;;;2.30;;
46266;SDS011;31998;48.798;15.066;2022-12-18T04:55:26;2.53;;;2.40;;
46266;SDS011;31998;48.798;15.066;2022-12-18T04:57:52;3.33;;;1.65;;
46266;SDS011;31998;48.798;15.066;2022-12-18T05:00:17;2.47;;;2.27;;
46266;SDS011;31998;48.798;15.066;2022-12-18T05:02:43;2.37;;;2.20;;
46266;SDS011;31998;48.798;15.066;2022-12-18T05:05:09;2.27;;;2.07;;
46266;SDS011;31998;48.798;15.066;2022-12-18T05:07:34;1.83;;;1.73;;
46266;SDS011;31998;48.798;15.066;2022-12-18T05:10:00;1.73;;;1.73;;
46266;SDS011;31998;48.798;15.066;2022-12-18T05:12:25;1.60;;;1.50;;
46266;SDS011;31998;48.798;15.066;2022-12-18T05:14:51;2.43;;;2.23;;
46266;SDS011;31998;48.798;15.066;2022-12-18T05:17:16;0.83;;;0.83;;
46266;SDS011;31998;48.798;15.066;2022-12-18T05:19:42;1.10;;;1.07;;
46266;SDS011;31998;48.798;15.066;2022-12-18T05:22:07;1.87;;;1.77;;
46266;SDS011;31998;48.798;15.066;2022-12-18T05:24:33;2.57;;;2.47;;
46266;SDS011;31998;48.798;15.066;2022-12-18T05:26:58;1.00;;;1.00;;
46266;SDS011;31998;48.798;15.066;2022-12-18T05:29:24;1.27;;;1.10;;
46266;SDS011;31998;48.798;15.066;2022-12-18T05:31:49;15.63;;;2.23;;
46266;SDS011;31998;48.798;15.066;2022-12-18T05:34:15;1.57;;;1.57;;
46266;SDS011;31998;48.798;15.066;2022-12-18T05:36:40;1.40;;;1.40;;
46266;SDS011;31998;48.798;15.066;2022-12-18T05:39:06;1.87;;;1.77;;
46266;SDS011;31998;48.798;15.066;2022-12-18T05:41:31;1.50;;;1.40;;
46266;SDS011;31998;48.798;15.066;2022-12-18T05:43:57;1.53;;;1.50;;
46266;SDS011;31998;48.798;15.066;2022-12-18T05:46:23;1.45;;;1.35;;
46266;SDS011;31998;48.798;15.066;2022-12-18T05:48:49;2.55;;;1.58;;
46266;SDS011;31998;48.798;15.066;2022-12-18T05:51:16;1.85;;;1.42;;
46266;SDS011;31998;48.798;15.066;2022-12-18T05:53:43;2.65;;;1.85;;
46266;SDS011;31998;48.798;15.066;2022-12-18T05:56:11;0.90;;;0.90;;
46266;SDS011;31998;48.798;15.066;2022-12-18T05:58:41;4.80;;;3.25;;
46266;SDS011;31998;48.798;15.066;2022-12-18T06:01:15;1.20;;;1.20;;
46266;SDS011;31998;48.798;15.066;2022-12-18T06:03:42;1.80;;;1.70;;
46266;SDS011;31998;48.798;15.066;2022-12-18T06:06:18;4.37;;;1.03;;
46266;SDS011;31998;48.798;15.066;2022-12-18T06:08:47;1.80;;;1.70;;
46266;SDS011;31998;48.798;15.066;2022-12-18T06:11:15;1.33;;;1.23;;
46266;SDS011;31998;48.798;15.066;2022-12-18T06:13:43;1.83;;;1.73;;
46266;SDS011;31998;48.798;15.066;2022-12-18T06:16:08;1.20;;;1.20;;
46266;SDS011;31998;48.798;15.066;2022-12-18T06:18:33;2.00;;;1.30;;
46266;SDS011;31998;48.798;15.066;2022-12-18T06:20:59;1.57;;;1.40;;
46266;SDS011;31998;48.798;15.066;2022-12-18T06:23:25;1.15;;;1.15;;
46266;SDS011;31998;48.798;15.066;2022-12-18T06:25:51;2.08;;;1.15;;
46266;SDS011;31998;48.798;15.066;2022-12-18T06:28:17;1.03;;;1.03;;
46266;SDS011;31998;48.798;15.066;2022-12-18T06:30:43;1.47;;;1.43;;
46266;SDS011;31998;48.798;15.066;2022-12-18T06:33:09;1.05;;;1.05;;
46266;SDS011;31998;48.798;15.066;2022-12-18T06:35:34;2.13;;;2.03;;
46266;SDS011;31998;48.798;15.066;2022-12-18T06:38:00;1.23;;;1.20;;
46266;SDS011;31998;48.798;15.066;2022-12-18T06:40:26;1.30;;;1.30;;
46266;SDS011;31998;48.798;15.066;2022-12-18T06:42:52;1.00;;;1.00;;
46266;SDS011;31998;48.798;15.066;2022-12-18T06:45:17;3.43;;;2.83;;
46266;SDS011;31998;48.798;15.066;2022-12-18T06:47:43;1.63;;;1.53;;
46266;SDS011;31998;48.798;15.066;2022-12-18T06:50:08;1.10;;;1.00;;
46266;SDS011;31998;48.798;15.066;2022-12-18T06:52:37;1.27;;;1.17;;
46266;SDS011;31998;48.798;15.066;2022-12-18T06:55:04;1.40;;;1.30;;
46266;SDS011;31998;48.798;15.066;2022-12-18T06:57:29;1.17;;;1.13;;
46266;SDS011;31998;48.798;15.066;2022-12-18T06:59:55;2.73;;;1.87;;
46266;SDS011;31998;48.798;15.066;2022-12-18T07:02:20;1.03;;;1.00;;
46266;SDS011;31998;48.798;15.066;2022-12-18T07:04:46;3.03;;;1.40;;
46266;SDS011;31998;48.798;15.066;2022-12-18T07:07:11;1.70;;;1.60;;
46266;SDS011;31998;48.798;15.066;2022-12-18T07:09:36;3.20;;;2.10;;
46266;SDS011;31998;48.798;15.066;2022-12-18T07:12:02;4.83;;;0.97;;
46266;SDS011;31998;48.798;15.066;2022-12-18T07:14:27;1.50;;;1.50;;
46266;SDS011;31998;48.798;15.066;2022-12-18T07:16:53;1.73;;;1.20;;
46266;SDS011;31998;48.798;15.066;2022-12-18T07:19:18;1.37;;;1.27;;
46266;SDS011;31998;48.798;15.066;2022-12-18T07:21:44;2.43;;;0.90;;
46266;SDS011;31998;48.798;15.066;2022-12-18T07:24:09;1.07;;;0.97;;
46266;SDS011;31998;48.798;15.066;2022-12-18T07:26:34;1.37;;;1.27;;
46266;SDS011;31998;48.798;15.066;2022-12-18T07:29:00;2.30;;;2.10;;
46266;SDS011;31998;48.798;15.066;2022-12-18T07:31:25;1.30;;;1.20;;
46266;SDS011;31998;48.798;15.066;2022-12-18T07:33:51;1.15;;;1.15;;
46266;SDS011;31998;48.798;15.066;2022-12-18T07:36:17;1.00;;;1.00;;
46266;SDS011;31998;48.798;15.066;2022-12-18T07:38:46;1.20;;;1.10;;
46266;SDS011;31998;48.798;15.066;2022-12-18T07:41:12;2.13;;;1.70;;
46266;SDS011;31998;48.798;15.066;2022-12-18T07:43:39;4.25;;;1.65;;
46266;SDS011;31998;48.798;15.066;2022-12-18T07:46:05;1.52;;;1.42;;
46266;SDS011;31998;48.798;15.066;2022-12-18T07:48:31;1.33;;;0.90;;
46266;SDS011;31998;48.798;15.066;2022-12-18T07:51:00;1.30;;;1.20;;
46266;SDS011;31998;48.798;15.066;2022-12-18T07:53:26;5.22;;;1.35;;
46266;SDS011;31998;48.798;15.066;2022-12-18T07:55:59;3.20;;;1.37;;
46266;SDS011;31998;48.798;15.066;2022-12-18T07:58:27;0.85;;;0.75;;
46266;SDS011;31998;48.798;15.066;2022-12-18T08:00:52;1.90;;;1.80;;
46266;SDS011;31998;48.798;15.066;2022-12-18T08:03:18;2.83;;;2.60;;
46266;SDS011;31998;48.798;15.066;2022-12-18T08:05:43;3.13;;;2.93;;
46266;SDS011;31998;48.798;15.066;2022-12-18T08:08:09;5.40;;;4.03;;
46266;SDS011;31998;48.798;15.066;2022-12-18T08:10:34;4.83;;;3.60;;
46266;SDS011;31998;48.798;15.066;2022-12-18T08:12:59;4.17;;;3.87;;
46266;SDS011;31998;48.798;15.066;2022-12-18T08:15:25;5.60;;;3.40;;
46266;SDS011;31998;48.798;15.066;2022-12-18T08:17:50;11.10;;;5.40;;
46266;SDS011;31998;48.798;15.066;2022-12-18T08:20:16;8.43;;;4.93;;
46266;SDS011;31998;48.798;15.066;2022-12-18T08:22:43;18.52;;;6.38;;
46266;SDS011;31998;48.798;15.066;2022-12-18T08:25:08;14.00;;;7.30;;
46266;SDS011;31998;48.798;15.066;2022-12-18T08:27:34;25.20;;;12.50;;
46266;SDS011;31998;48.798;15.066;2022-12-18T08:30:00;12.23;;;8.70;;
46266;SDS011;31998;48.798;15.066;2022-12-18T08:32:26;21.77;;;12.37;;
46266;SDS011;31998;48.798;15.066;2022-12-18T08:34:52;12.88;;;8.93;;
46266;SDS011;31998;48.798;15.066;2022-12-18T08:37:17;21.47;;;11.20;;
46266;SDS011;31998;48.798;15.066;2022-12-18T08:39:43;28.20;;;12.40;;
46266;SDS011;31998;48.798;15.066;2022-12-18T08:42:08;23.43;;;10.13;;
46266;SDS011;31998;48.798;15.066;2022-12-18T08:44:52;13.13;;;7.40;;
46266;SDS011;31998;48.798;15.066;2022-12-18T08:47:18;13.40;;;8.07;;
46266;SDS011;31998;48.798;15.066;2022-12-18T08:49:43;16.60;;;9.53;;
46266;SDS011;31998;48.798;15.066;2022-12-18T08:52:09;19.53;;;10.13;;
46266;SDS011;31998;48.798;15.066;2022-12-18T08:54:34;25.03;;;9.70;;
46266;SDS011;31998;48.798;15.066;2022-12-18T08:56:59;18.67;;;9.50;;
46266;SDS011;31998;48.798;15.066;2022-12-18T08:59:25;20.40;;;10.03;;
46266;SDS011;31998;48.798;15.066;2022-12-18T09:01:52;23.80;;;12.63;;
46266;SDS011;31998;48.798;15.066;2022-12-18T09:04:19;29.08;;;13.20;;
46266;SDS011;31998;48.798;15.066;2022-12-18T09:06:44;27.30;;;12.33;;
46266;SDS011;31998;48.798;15.066;2022-12-18T09:09:10;35.23;;;13.50;;
46266;SDS011;31998;48.798;15.066;2022-12-18T09:11:36;50.53;;;13.80;;
46266;SDS011;31998;48.798;15.066;2022-12-18T09:14:02;44.37;;;12.60;;
46266;SDS011;31998;48.798;15.066;2022-12-18T09:16:28;32.60;;;14.13;;
46266;SDS011;31998;48.798;15.066;2022-12-18T09:18:54;28.38;;;12.43;;
46266;SDS011;31998;48.798;15.066;2022-12-18T09:21:24;35.65;;;12.20;;
46266;SDS011;31998;48.798;15.066;2022-12-18T09:23:51;37.53;;;14.50;;
46266;SDS011;31998;48.798;15.066;2022-12-18T09:26:21;55.17;;;16.10;;
46266;SDS011;31998;48.798;15.066;2022-12-18T09:28:47;58.22;;;15.95;;
46266;SDS011;31998;48.798;15.066;2022-12-18T09:31:13;45.37;;;14.90;;
46266;SDS011;31998;48.798;15.066;2022-12-18T09:33:39;39.17;;;15.73;;
46266;SDS011;31998;48.798;15.066;2022-12-18T09:36:07;36.37;;;15.50;;
46266;SDS011;31998;48.798;15.066;2022-12-18T09:38:34;39.85;;;16.77;;
46266;SDS011;31998;48.798;15.066;2022-12-18T09:44:20;30.23;;;13.50;;
46266;SDS011;31998;48.798;15.066;2022-12-18T09:46:51;49.17;;;17.40;;
46266;SDS011;31998;48.798;15.066;2022-12-18T09:49:31;45.63;;;17.00;;
46266;SDS011;31998;48.798;15.066;2022-12-18T09:52:09;44.73;;;17.03;;
46266;SDS011;31998;48.798;15.066;2022-12-18T09:54:43;37.65;;;14.10;;
46266;SDS011;31998;48.798;15.066;2022-12-18T09:57:15;33.10;;;16.50;;
46266;SDS011;31998;48.798;15.066;2022-12-18T09:59:44;64.07;;;17.75;;
46266;SDS011;31998;48.798;15.066;2022-12-18T10:02:20;36.47;;;15.20;;
46266;SDS011;31998;48.798;15.066;2022-12-18T10:05:05;34.20;;;15.70;;
46266;SDS011;31998;48.798;15.066;2022-12-18T10:07:35;47.15;;;15.65;;
46266;SDS011;31998;48.798;15.066;2022-12-18T10:10:12;31.33;;;14.43;;
46266;SDS011;31998;48.798;15.066;2022-12-18T10:21:19;35.97;;;14.65;;
46266;SDS011;31998;48.798;15.066;2022-12-18T10:26:27;35.45;;;14.25;;
46266;SDS011;31998;48.798;15.066;2022-12-18T10:28:52;37.70;;;16.03;;
46266;SDS011;31998;48.798;15.066;2022-12-18T10:31:20;41.23;;;16.60;;
46266;SDS011;31998;48.798;15.066;2022-12-18T10:33:47;40.80;;;17.17;;
46266;SDS011;31998;48.798;15.066;2022-12-18T10:36:12;37.17;;;13.67;;
46266;SDS011;31998;48.798;15.066;2022-12-18T10:38:38;34.00;;;15.93;;
46266;SDS011;31998;48.798;15.066;2022-12-18T10:41:05;24.13;;;14.00;;
46266;SDS011;31998;48.798;15.066;2022-12-18T10:43:52;39.55;;;17.05;;
46266;SDS011;31998;48.798;15.066;2022-12-18T10:46:41;45.07;;;17.03;;
46266;SDS011;31998;48.798;15.066;2022-12-18T10:49:17;38.80;;;16.70;;
46266;SDS011;31998;48.798;15.066;2022-12-18T10:51:44;39.90;;;15.07;;
46266;SDS011;31998;48.798;15.066;2022-12-18T10:54:14;42.93;;;16.30;;
46266;SDS011;31998;48.798;15.066;2022-12-18T10:56:43;30.27;;;14.48;;
46266;SDS011;31998;48.798;15.066;2022-12-18T10:59:09;38.07;;;16.30;;
46266;SDS011;31998;48.798;15.066;2022-12-18T11:06:56;29.03;;;13.83;;
46266;SDS011;31998;48.798;15.066;2022-12-18T11:09:23;31.70;;;15.40;;
46266;SDS011;31998;48.798;15.066;2022-12-18T11:11:55;39.70;;;15.60;;
46266;SDS011;31998;48.798;15.066;2022-12-18T11:14:25;40.27;;;16.17;;
46266;SDS011;31998;48.798;15.066;2022-12-18T11:16:53;28.02;;;14.05;;
46266;SDS011;31998;48.798;15.066;2022-12-18T11:19:24;35.35;;;16.70;;
46266;SDS011;31998;48.798;15.066;2022-12-18T11:21:55;23.60;;;12.90;;
46266;SDS011;31998;48.798;15.066;2022-12-18T11:24:30;26.37;;;13.70;;
46266;SDS011;31998;48.798;15.066;2022-12-18T11:26:58;32.03;;;13.10;;
46266;SDS011;31998;48.798;15.066;2022-12-18T11:29:36;30.40;;;15.45;;
46266;SDS011;31998;48.798;15.066;2022-12-18T11:34:41;32.13;;;15.50;;
46266;SDS011;31998;48.798;15.066;2022-12-18T11:37:11;33.15;;;15.82;;
46266;SDS011;31998;48.798;15.066;2022-12-18T11:39:40;39.50;;;17.90;;
46266;SDS011;31998;48.798;15.066;2022-12-18T11:42:25;36.17;;;19.10;;
46266;SDS011;31998;48.798;15.066;2022-12-18T11:45:20;29.80;;;14.90;;
46266;SDS011;31998;48.798;15.066;2022-12-18T11:47:54;31.63;;;14.23;;
46266;SDS011;31998;48.798;15.066;2022-12-18T11:53:01;29.47;;;14.90;;
46266;SDS011;31998;48.798;15.066;2022-12-18T12:09:37;25.40;;;12.87;;
46266;SDS011;31998;48.798;15.066;2022-12-18T12:15:26;23.35;;;12.93;;
46266;SDS011;31998;48.798;15.066;2022-12-18T12:18:24;32.07;;;16.13;;
46266;SDS011;31998;48.798;15.066;2022-12-18T12:21:19;22.83;;;12.80;;
46266;SDS011;31998;48.798;15.066;2022-12-18T12:38:05;30.80;;;13.00;;
46266;SDS011;31998;48.798;15.066;2022-12-18T12:40:33;28.13;;;12.97;;
46266;SDS011;31998;48.798;15.066;2022-12-18T12:43:03;30.07;;;13.60;;
46266;SDS011;31998;48.798;15.066;2022-12-18T12:48:46;26.08;;;12.00;;
46266;SDS011;31998;48.798;15.066;2022-12-18T12:51:16;26.95;;;13.70;;
46266;SDS011;31998;48.798;15.066;2022-12-18T12:54:04;27.43;;;12.60;;
46266;SDS011;31998;48.798;15.066;2022-12-18T12:56:38;22.30;;;11.90;;
46266;SDS011;31998;48.798;15.066;2022-12-18T13:02:39;20.20;;;13.05;;
46266;SDS011;31998;48.798;15.066;2022-12-18T13:05:34;30.90;;;13.98;;
46266;SDS011;31998;48.798;15.066;2022-12-18T13:07:54;21.35;;;12.07;;
46266;SDS011;31998;48.798;15.066;2022-12-18T13:10:25;21.98;;;12.15;;
46266;SDS011;31998;48.798;15.066;2022-12-18T13:15:25;23.42;;;13.23;;
46266;SDS011;31998;48.798;15.066;2022-12-18T13:26:34;25.53;;;13.07;;
46266;SDS011;31998;48.798;15.066;2022-12-18T13:31:12;21.83;;;13.37;;
46266;SDS011;31998;48.798;15.066;2022-12-18T13:38:42;34.33;;;15.67;;
46266;SDS011;31998;48.798;15.066;2022-12-18T13:43:44;24.63;;;12.68;;
46266;SDS011;31998;48.798;15.066;2022-12-18T13:48:48;27.93;;;14.00;;
46266;SDS011;31998;48.798;15.066;2022-12-18T13:51:17;32.65;;;15.60;;
46266;SDS011;31998;48.798;15.066;2022-12-18T13:53:47;32.37;;;15.67;;
46266;SDS011;31998;48.798;15.066;2022-12-18T13:56:27;27.33;;;13.67;;
46266;SDS011;31998;48.798;15.066;2022-12-18T13:59:04;27.52;;;15.25;;
46266;SDS011;31998;48.798;15.066;2022-12-18T14:01:30;28.33;;;15.00;;
46266;SDS011;31998;48.798;15.066;2022-12-18T14:04:08;32.37;;;15.87;;
46266;SDS011;31998;48.798;15.066;2022-12-18T14:06:42;30.20;;;16.00;;
46266;SDS011;31998;48.798;15.066;2022-12-18T14:09:12;32.85;;;14.68;;
46266;SDS011;31998;48.798;15.066;2022-12-18T14:11:40;30.75;;;15.43;;
46266;SDS011;31998;48.798;15.066;2022-12-18T14:14:12;29.92;;;14.88;;
46266;SDS011;31998;48.798;15.066;2022-12-18T14:16:40;24.42;;;13.52;;
46266;SDS011;31998;48.798;15.066;2022-12-18T14:19:08;27.63;;;13.75;;
46266;SDS011;31998;48.798;15.066;2022-12-18T14:21:38;25.30;;;13.65;;
46266;SDS011;31998;48.798;15.066;2022-12-18T14:24:17;26.50;;;14.00;;
46266;SDS011;31998;48.798;15.066;2022-12-18T14:26:44;27.70;;;13.88;;
46266;SDS011;31998;48.798;15.066;2022-12-18T14:29:18;25.23;;;14.57;;
46266;SDS011;31998;48.798;15.066;2022-12-18T14:31:46;24.58;;;14.45;;
46266;SDS011;31998;48.798;15.066;2022-12-18T14:34:28;34.13;;;15.27;;
46266;SDS011;31998;48.798;15.066;2022-12-18T14:36:54;29.00;;;15.97;;
46266;SDS011;31998;48.798;15.066;2022-12-18T14:39:21;31.35;;;16.02;;
46266;SDS011;31998;48.798;15.066;2022-12-18T14:41:48;24.17;;;13.88;;
46266;SDS011;31998;48.798;15.066;2022-12-18T14:44:13;31.30;;;15.80;;
46266;SDS011;31998;48.798;15.066;2022-12-18T14:46:39;29.37;;;14.77;;
46266;SDS011;31998;48.798;15.066;2022-12-18T14:49:27;24.80;;;13.52;;
46266;SDS011;31998;48.798;15.066;2022-12-18T14:51:59;33.17;;;15.00;;
46266;SDS011;31998;48.798;15.066;2022-12-18T14:54:28;31.08;;;15.73;;
46266;SDS011;31998;48.798;15.066;2022-12-18T14:59:25;26.17;;;11.80;;
46266;SDS011;31998;48.798;15.066;2022-12-18T15:04:27;35.78;;;14.95;;
46266;SDS011;31998;48.798;15.066;2022-12-18T15:09:36;31.50;;;15.27;;
46266;SDS011;31998;48.798;15.066;2022-12-18T15:12:02;29.25;;;13.10;;
46266;SDS011;31998;48.798;15.066;2022-12-18T15:14:32;23.95;;;13.25;;
46266;SDS011;31998;48.798;15.066;2022-12-18T15:17:00;25.17;;;14.15;;
46266;SDS011;31998;48.798;15.066;2022-12-18T15:19:36;22.77;;;12.40;;
46266;SDS011;31998;48.798;15.066;2022-12-18T15:22:04;25.55;;;13.88;;
46266;SDS011;31998;48.798;15.066;2022-12-18T15:24:40;20.67;;;11.13;;
46266;SDS011;31998;48.798;15.066;2022-12-18T15:27:17;27.97;;;13.77;;
46266;SDS011;31998;48.798;15.066;2022-12-18T15:32:30;25.60;;;13.32;;
46266;SDS011;31998;48.798;15.066;2022-12-18T15:35:28;45.13;;;16.63;;
46266;SDS011;31998;48.798;15.066;2022-12-18T15:37:49;29.20;;;15.55;;
46266;SDS011;31998;48.798;15.066;2022-12-18T15:40:19;36.15;;;15.45;;
46266;SDS011;31998;48.798;15.066;2022-12-18T15:42:47;37.67;;;15.48;;
46266;SDS011;31998;48.798;15.066;2022-12-18T15:45:32;29.08;;;13.98;;
46266;SDS011;31998;48.798;15.066;2022-12-18T15:47:58;25.87;;;13.43;;
46266;SDS011;31998;48.798;15.066;2022-12-18T15:50:24;31.70;;;15.50;;
46266;SDS011;31998;48.798;15.066;2022-12-18T15:52:51;27.83;;;15.07;;
46266;SDS011;31998;48.798;15.066;2022-12-18T15:55:21;26.58;;;15.15;;
46266;SDS011;31998;48.798;15.066;2022-12-18T15:58:08;31.55;;;14.35;;
46266;SDS011;31998;48.798;15.066;2022-12-18T16:00:35;21.33;;;12.65;;
46266;SDS011;31998;48.798;15.066;2022-12-18T16:03:03;27.13;;;14.80;;
46266;SDS011;31998;48.798;15.066;2022-12-18T16:05:29;32.67;;;16.07;;
46266;SDS011;31998;48.798;15.066;2022-12-18T16:07:54;34.67;;;15.93;;
46266;SDS011;31998;48.798;15.066;2022-12-18T16:10:24;32.05;;;15.13;;
46266;SDS011;31998;48.798;15.066;2022-12-18T16:12:50;33.22;;;13.73;;
46266;SDS011;31998;48.798;15.066;2022-12-18T16:15:16;33.77;;;13.87;;
46266;SDS011;31998;48.798;15.066;2022-12-18T16:17:42;29.10;;;14.13;;
46266;SDS011;31998;48.798;15.066;2022-12-18T16:20:15;29.92;;;14.38;;
46266;SDS011;31998;48.798;15.066;2022-12-18T16:22:43;34.55;;;14.88;;
46266;SDS011;31998;48.798;15.066;2022-12-18T16:27:47;33.20;;;15.93;;
46266;SDS011;31998;48.798;15.066;2022-12-18T16:30:17;30.58;;;16.27;;
46266;SDS011;31998;48.798;15.066;2022-12-18T16:32:45;30.67;;;14.70;;
46266;SDS011;31998;48.798;15.066;2022-12-18T16:35:14;35.17;;;14.77;;
46266;SDS011;31998;48.798;15.066;2022-12-18T16:37:41;25.08;;;13.85;;